Time;durP1;ratioP1;P1;durP2;ratioP2;P2;SDS_P1;SDS_P2;PMS_P1;PMS_P2;Temp;Humidity;BMP_temperature;BMP_pressure;BME280_temperature;BME280_humidity;BME280_pressure;Samples;Min_cycle;Max_cycle;Signal;HPM_P1;HPM_P2
2021/03/25 00:01:24;;;;;;;9.33;6.03;;;;;;;0.51;82.47;100502.64;1818127;79;20883;-76
2021/03/25 00:03:54;;;;;;;8.60;5.87;;;;;;;0.53;82.28;100495.69;1817983;77;20978;-73
2021/03/25 00:06:24;;;;;;;6.95;5.22;;;;;;;0.56;82.16;100497.38;1787318;79;21906;-76
2021/03/25 00:08:52;;;;;;;7.08;6.37;;;;;;;0.53;82.03;100493.11;1824312;78;20965;-77
2021/03/25 00:11:21;;;;;;;9.50;5.67;;;;;;;0.50;82.15;100494.47;1833072;78;20891;-76
2021/03/25 00:13:49;;;;;;;8.28;5.45;;;;;;;0.51;82.27;100488.86;1832959;78;20930;-78
2021/03/25 00:16:18;;;;;;;6.15;4.80;;;;;;;0.52;82.32;100491.87;1833192;78;21324;-78
2021/03/25 00:18:47;;;;;;;8.08;5.75;;;;;;;0.51;82.17;100487.57;1832974;78;20949;-77
2021/03/25 00:21:16;;;;;;;7.22;6.03;;;;;;;0.48;82.08;100488.48;1832473;78;20934;-78
2021/03/25 00:23:45;;;;;;;6.42;5.20;;;;;;;0.47;82.10;100477.78;1832495;78;21511;-76
2021/03/25 00:26:13;;;;;;;7.67;5.37;;;;;;;0.45;82.12;100485.14;1832547;78;21005;-76
2021/03/25 00:28:42;;;;;;;8.65;5.22;;;;;;;0.45;82.17;100482.12;1832454;77;21404;-77
2021/03/25 00:31:10;;;;;;;7.20;5.62;;;;;;;0.45;82.17;100483.85;1832504;78;21751;-77
2021/03/25 00:33:39;;;;;;;7.47;5.40;;;;;;;0.46;82.17;100478.64;1832374;78;20942;-76
2021/03/25 00:36:09;;;;;;;8.55;5.28;;;;;;;0.45;82.07;100477.41;1832430;78;21045;-76
2021/03/25 00:38:37;;;;;;;8.10;5.60;;;;;;;0.47;82.00;100479.06;1832377;78;21300;-77
2021/03/25 00:41:05;;;;;;;9.63;5.60;;;;;;;0.50;81.80;100475.56;1832463;78;20997;-76
2021/03/25 00:43:34;;;;;;;6.78;4.70;;;;;;;0.49;81.89;100478.59;1832468;77;21359;-78
2021/03/25 00:46:02;;;;;;;8.40;5.78;;;;;;;0.47;81.86;100475.20;1832373;77;21021;-76
2021/03/25 00:48:30;;;;;;;8.85;6.30;;;;;;;0.46;81.89;100480.38;1832658;77;20926;-77
2021/03/25 00:51:01;;;;;;;7.90;6.42;;;;;;;0.44;81.99;100475.69;1832442;77;20890;-77
2021/03/25 00:53:35;;;;;;;8.05;5.92;;;;;;;0.46;81.99;100470.06;1832503;78;20914;-77
2021/03/25 00:56:04;;;;;;;7.72;5.50;;;;;;;0.43;81.98;100477.42;1832369;77;21362;-77
2021/03/25 00:58:33;;;;;;;7.75;6.45;;;;;;;0.43;82.05;100480.01;1804604;78;21020;-77
2021/03/25 01:01:04;;;;;;;8.90;6.05;;;;;;;0.39;82.16;100472.76;1832432;77;21029;-78
2021/03/25 01:03:33;;;;;;;6.30;5.28;;;;;;;0.38;82.29;100468.94;1832477;78;21013;-76
2021/03/25 01:06:02;;;;;;;8.70;6.40;;;;;;;0.40;82.31;100473.19;1832479;78;20986;-76
2021/03/25 01:08:31;;;;;;;6.72;5.67;;;;;;;0.43;82.09;100475.30;1830496;78;22313;-77
2021/03/25 01:11:14;;;;;;;10.08;6.25;;;;;;;0.40;82.19;100482.21;1816265;78;20982;-77
2021/03/25 01:13:59;;;;;;;8.70;6.08;;;;;;;0.41;82.16;100477.89;1817452;77;21011;-78
2021/03/25 01:16:31;;;;;;;8.80;5.80;;;;;;;0.42;82.21;100471.84;1817467;77;20950;-78
2021/03/25 01:19:01;;;;;;;6.33;5.72;;;;;;;0.42;82.07;100475.71;1817470;79;20915;-79
2021/03/25 01:21:32;;;;;;;8.80;5.60;;;;;;;0.41;82.06;100470.16;1817553;77;21195;-79
2021/03/25 01:24:01;;;;;;;7.53;6.00;;;;;;;0.44;81.99;100474.40;1787355;79;20938;-78
2021/03/25 01:26:29;;;;;;;7.50;5.78;;;;;;;0.44;81.90;100472.66;1819040;78;20918;-77
2021/03/25 01:29:00;;;;;;;9.10;6.35;;;;;;;0.46;82.05;100471.34;1818460;79;20947;-77
2021/03/25 01:31:29;;;;;;;6.85;5.37;;;;;;;0.42;81.99;100474.42;1817537;79;20931;-77
2021/03/25 01:34:00;;;;;;;8.25;5.40;;;;;;;0.43;81.97;100473.55;1817422;79;21188;-79
2021/03/25 01:36:28;;;;;;;9.63;6.53;;;;;;;0.40;81.82;100474.47;1817314;77;20938;-79
2021/03/25 01:38:58;;;;;;;10.40;6.05;;;;;;;0.41;81.82;100481.77;1817350;77;20950;-77
2021/03/25 01:41:30;;;;;;;9.80;6.25;;;;;;;0.39;81.78;100479.66;1817326;77;20931;-77
2021/03/25 01:43:59;;;;;;;9.60;6.58;;;;;;;0.41;81.94;100480.48;1817404;78;20907;-76
2021/03/25 01:46:34;;;;;;;9.03;6.20;;;;;;;0.46;81.97;100480.38;1817416;79;22694;-77
2021/03/25 01:49:06;;;;;;;;;;;;;;;0.48;81.83;100483.33;1819939;79;20919;-76
2021/03/25 01:52:12;;;;;;;7.62;5.83;;;;;;;0.48;81.73;100478.17;1817305;79;20161;-77
2021/03/25 01:55:00;;;;;;;7.47;5.93;;;;;;;0.49;81.59;100477.72;1817536;77;21136;-77
2021/03/25 01:57:55;;;;;;;8.60;5.53;;;;;;;0.46;81.67;100476.51;1814687;79;21350;-77
2021/03/25 02:00:43;;;;;;;11.35;6.30;;;;;;;0.45;81.70;100478.25;1817278;79;22384;-76
2021/03/25 02:03:31;;;;;;;10.13;6.87;;;;;;;0.43;81.76;100470.98;1792631;79;21045;-76
2021/03/25 02:06:46;;;;;;;7.60;6.75;;;;;;;0.42;81.73;100475.71;1817466;79;20946;-77
2021/03/25 02:09:59;;;;;;;7.97;5.90;;;;;;;0.43;81.66;100472.72;1821186;77;20907;-76
2021/03/25 02:13:04;;;;;;;8.48;6.25;;;;;;;0.44;81.60;100473.95;1828441;77;21028;-78
2021/03/25 02:15:43;;;;;;;8.08;6.08;;;;;;;0.45;81.58;100478.69;1829906;78;21005;-76
2021/03/25 02:18:35;;;;;;;8.60;6.58;;;;;;;0.45;81.68;100475.66;1829686;77;21025;-77
2021/03/25 02:21:40;;;;;;;12.82;7.53;;;;;;;0.53;81.52;100474.20;1845859;76;22749;-77
2021/03/25 02:24:42;;;;;;;8.00;6.47;;;;;;;0.47;81.33;100476.48;1813131;78;21038;-78
2021/03/25 02:27:29;;;;;;;8.10;6.25;;;;;;;0.45;81.35;100483.41;1817984;79;21555;-77
2021/03/25 02:30:07;;;;;;;8.23;5.53;;;;;;;0.43;81.38;100480.45;1818799;79;20986;-77
2021/03/25 02:32:41;;;;;;;7.80;6.10;;;;;;;0.40;81.46;100482.62;1818516;79;20918;-77
2021/03/25 02:35:18;;;;;;;10.08;6.58;;;;;;;0.41;81.56;100481.77;1818688;79;21471;-77
2021/03/25 02:37:48;;;;;;;9.15;5.83;;;;;;;0.46;81.44;100481.22;1820713;78;20897;-77
2021/03/25 02:40:44;;;;;;;10.13;5.42;;;;;;;0.49;81.14;100481.59;1821530;76;21287;-77
2021/03/25 02:43:27;;;;;;;8.10;6.03;;;;;;;0.49;81.26;100479.89;1789722;79;21006;-77
2021/03/25 02:46:02;;;;;;;;;;;;;;;0.53;81.43;100485.81;1821889;79;21427;-78
2021/03/25 02:48:32;;;;;;;10.43;6.30;;;;;;;0.55;81.33;100481.47;1818133;79;20133;-76
2021/03/25 02:51:05;;;;;;;10.20;5.55;;;;;;;0.55;81.18;100487.47;1787121;77;20989;-76
2021/03/25 02:53:40;;;;;;;6.58;5.78;;;;;;;0.58;81.10;100483.56;1786962;79;21413;-77
2021/03/25 02:56:21;;;;;;;7.62;5.53;;;;;;;0.57;81.10;100476.68;1817936;79;20990;-76
2021/03/25 02:58:55;;;;;;;6.90;5.75;;;;;;;0.58;81.12;100484.84;1809403;79;21021;-77
2021/03/25 03:03:33;;;;;;;6.83;5.03;;;;;;;0.60;81.15;100480.51;1902080;74;22011;-77
2021/03/25 03:06:36;;;;;;;7.33;5.60;;;;;;;0.58;81.09;100482.27;1798716;78;20914;-78
2021/03/25 03:09:10;;;;;;;8.13;5.47;;;;;;;0.57;80.96;100483.13;1805721;78;21471;-76
2021/03/25 03:11:43;;;;;;;9.18;6.10;;;;;;;0.54;80.87;100483.66;1819471;78;20966;-77
2021/03/25 03:14:32;;;;;;;7.15;5.17;;;;;;;0.52;80.99;100483.68;1729164;80;21587;-76
2021/03/25 03:17:17;;;;;;;5.85;5.08;;;;;;;0.56;81.17;100484.03;1776589;79;21024;-76
2021/03/25 03:20:07;;;;;;;6.45;5.15;;;;;;;0.58;81.12;100484.84;1781678;79;21065;-77
2021/03/25 03:22:37;;;;;;;7.42;5.92;;;;;;;0.57;80.93;100482.30;1818954;78;21458;-76
2021/03/25 03:25:19;;;;;;;7.97;5.72;;;;;;;0.53;80.82;100481.94;1766212;79;21016;-77
2021/03/25 03:28:03;;;;;;;9.93;6.03;;;;;;;0.52;80.95;100488.00;1764114;80;21152;-77
2021/03/25 03:30:35;;;;;;;7.53;5.72;;;;;;;0.51;81.08;100485.86;1762464;79;21300;-80
2021/03/25 03:33:16;;;;;;;8.90;5.80;;;;;;;0.52;81.19;100485.42;1767565;80;20985;-78
2021/03/25 03:36:11;;;;;;;6.20;5.60;;;;;;;0.50;81.01;100484.59;1780121;79;21200;-79
2021/03/25 03:38:51;;;;;;;7.47;5.95;;;;;;;0.49;81.08;100490.20;1782156;79;21108;-78
2021/03/25 03:41:24;;;;;;;7.22;5.87;;;;;;;0.50;80.81;100489.31;1742882;81;21325;-78
2021/03/25 03:43:54;;;;;;;7.80;5.67;;;;;;;0.48;80.95;100485.06;1790081;79;20994;-79
2021/03/25 03:46:25;;;;;;;8.28;5.45;;;;;;;0.48;81.12;100486.36;1737315;81;21006;-77
2021/03/25 03:49:24;;;;;;;7.50;4.97;;;;;;;0.48;81.17;100482.48;1787043;79;21372;-80
2021/03/25 03:52:05;;;;;;;7.28;5.60;;;;;;;0.47;81.17;100484.64;1782159;79;21048;-79
2021/03/25 03:54:36;;;;;;;8.20;6.50;;;;;;;0.49;81.11;100488.92;1784610;79;21499;-78
2021/03/25 03:57:14;;;;;;;8.60;6.62;;;;;;;0.49;80.95;100482.47;1811754;78;20949;-75
2021/03/25 03:59:59;;;;;;;9.40;5.60;;;;;;;0.49;80.85;100486.34;1801416;79;21046;-76
2021/03/25 04:02:53;;;;;;;7.58;5.70;;;;;;;0.46;81.14;100486.38;1759520;79;22148;-77
2021/03/25 04:05:36;;;;;;;6.83;4.58;;;;;;;0.47;81.16;100488.51;1753421;79;21486;-76
2021/03/25 04:08:38;;;;;;;8.43;5.70;;;;;;;0.46;81.14;100491.54;1767421;79;20993;-76
2021/03/25 04:11:23;;;;;;;7.47;6.12;;;;;;;0.48;80.84;100490.23;1773414;79;21327;-77
2021/03/25 04:13:58;;;;;;;6.37;5.33;;;;;;;0.45;81.01;100492.44;1782253;79;21017;-78
2021/03/25 04:16:28;;;;;;;10.68;6.85;;;;;;;0.45;81.19;100488.56;1810799;77;22343;-74
2021/03/25 04:19:13;;;;;;;12.33;6.67;;;;;;;0.46;81.13;100489.41;1740968;80;20970;-76
2021/03/25 04:22:07;;;;;;;9.08;6.58;;;;;;;0.47;81.15;100490.67;1756587;80;21006;-75
2021/03/25 04:24:42;;;;;;;12.00;6.40;;;;;;;0.50;80.85;100496.20;1766448;80;21051;-76
2021/03/25 04:27:20;;;;;;;7.85;5.85;;;;;;;0.49;81.00;100497.07;1819222;78;21061;-74
2021/03/25 04:29:57;;;;;;;11.50;7.22;;;;;;;0.48;81.01;100492.36;1743882;81;22316;-77
2021/03/25 04:32:25;;;;;;;8.98;5.95;;;;;;;0.46;81.10;100499.28;1763243;80;20965;-78
2021/03/25 04:34:54;;;;;;;10.03;6.55;;;;;;;0.51;81.25;100500.47;1763319;80;21014;-77
2021/03/25 04:37:24;;;;;;;8.18;6.50;;;;;;;0.55;80.99;100493.92;1788835;78;21133;-79
2021/03/25 04:39:52;;;;;;;12.18;7.17;;;;;;;0.54;80.75;100497.40;1772656;79;21120;-78
2021/03/25 04:42:21;;;;;;;6.92;5.60;;;;;;;0.55;80.98;100501.66;1793189;79;21439;-78
2021/03/25 04:44:54;;;;;;;12.43;6.92;;;;;;;0.55;80.93;100496.95;1806112;78;21032;-78
2021/03/25 04:47:28;;;;;;;11.28;6.95;;;;;;;0.54;81.08;100501.27;1775837;80;20970;-78
2021/03/25 04:50:07;;;;;;;10.23;5.90;;;;;;;0.57;81.11;100498.61;1784782;79;21078;-77
2021/03/25 04:52:37;;;;;;;10.10;7.10;;;;;;;0.62;81.00;100495.94;1779034;79;21375;-78
2021/03/25 04:55:19;;;;;;;9.10;6.47;;;;;;;0.64;80.77;100503.66;1777891;79;21210;-78
2021/03/25 04:57:56;;;;;;;9.38;7.00;;;;;;;0.65;80.77;100502.79;1782075;79;21033;-78
2021/03/25 05:00:29;;;;;;;10.40;7.00;;;;;;;0.65;80.88;100507.50;1800737;78;21065;-79
2021/03/25 05:03:05;;;;;;;13.48;7.92;;;;;;;0.69;80.97;100505.69;1772115;80;20943;-76
2021/03/25 05:05:34;;;;;;;7.85;5.95;;;;;;;0.70;80.90;100504.82;1789533;79;21041;-78
2021/03/25 05:08:17;;;;;;;9.60;7.33;;;;;;;0.73;80.71;100509.91;1765024;80;21638;-77
2021/03/25 05:10:56;;;;;;;9.65;6.45;;;;;;;0.73;80.66;100511.20;1773482;80;20981;-78
2021/03/25 05:13:30;;;;;;;8.95;6.90;;;;;;;0.72;80.61;100518.55;1767436;80;21419;-78
2021/03/25 05:16:23;;;;;;;12.13;8.63;;;;;;;0.71;80.79;100518.99;1788339;79;20932;-78
2021/03/25 05:19:03;;;;;;;11.80;8.13;;;;;;;0.73;80.99;100522.36;1785073;80;21496;-79
2021/03/25 05:22:03;;;;;;;9.00;7.05;;;;;;;0.79;80.95;100522.24;1781170;80;21641;-78
2021/03/25 05:24:49;;;;;;;10.15;6.92;;;;;;;0.84;80.65;100514.39;1772532;80;21622;-79
2021/03/25 05:27:39;;;;;;;11.70;7.85;;;;;;;0.90;80.66;100520.72;1774003;80;21066;-77
2021/03/25 05:30:15;;;;;;;10.32;7.83;;;;;;;0.94;80.57;100524.10;1765009;80;20959;-78
2021/03/25 05:32:46;;;;;;;13.10;8.58;;;;;;;0.96;80.48;100532.66;1769941;79;21222;-78
2021/03/25 05:35:19;;;;;;;12.33;9.68;;;;;;;0.97;80.42;100533.90;1790262;79;21446;-77
2021/03/25 05:37:47;;;;;;;14.93;10.23;;;;;;;1.00;80.36;100535.56;1773696;79;20949;-78
2021/03/25 05:40:28;;;;;;;13.55;9.00;;;;;;;1.03;80.19;100538.94;1785189;79;21094;-77
2021/03/25 05:43:27;;;;;;;11.83;8.53;;;;;;;1.03;80.16;100540.67;1749441;79;20950;-78
2021/03/25 05:46:47;;;;;;;12.45;8.28;;;;;;;1.05;80.17;100538.91;1782097;79;21638;-78
2021/03/25 05:49:27;;;;;;;14.47;8.80;;;;;;;1.12;80.38;100542.20;1779239;79;22667;-78
2021/03/25 05:52:22;;;;;;;12.85;8.65;;;;;;;1.18;80.08;100539.50;1818405;78;20986;-79
2021/03/25 05:55:25;;;;;;;10.03;7.75;;;;;;;1.19;80.00;100548.48;1782181;80;21630;-76
2021/03/25 05:58:38;;;;;;;11.90;7.85;;;;;;;1.24;79.73;100549.25;1763839;79;21127;-77
2021/03/25 06:01:39;;;;;;;11.08;7.65;;;;;;;1.22;79.63;100543.68;1781807;79;21012;-78
2021/03/25 06:04:31;;;;;;;11.88;8.53;;;;;;;1.22;79.76;100551.43;1784006;79;21815;-77
2021/03/25 06:07:08;;;;;;;12.60;8.83;;;;;;;1.20;79.79;100551.91;1775903;79;20937;-78
2021/03/25 06:10:03;;;;;;;14.78;9.80;;;;;;;1.17;79.93;100551.98;1776749;79;21053;-77
2021/03/25 06:13:09;;;;;;;16.48;11.93;;;;;;;1.17;80.07;100545.53;1783418;79;21022;-75
2021/03/25 06:16:01;;;;;;;13.13;8.90;;;;;;;1.19;80.01;100551.06;1774141;79;20910;-75
2021/03/25 06:19:16;;;;;;;13.22;9.13;;;;;;;1.23;80.02;100551.85;1811573;78;21094;-75
2021/03/25 06:22:20;;;;;;;16.37;11.30;;;;;;;1.26;79.83;100550.93;1760093;78;21736;-75
2021/03/25 06:25:18;;;;;;;12.60;9.50;;;;;;;1.32;80.16;100556.80;1792722;78;20942;-75
2021/03/25 06:28:14;;;;;;;14.65;9.13;;;;;;;1.47;79.98;100557.32;1852299;77;22687;-75
2021/03/25 06:31:17;;;;;;;13.93;10.60;;;;;;;1.47;79.75;100557.32;1750217;82;20939;-76
2021/03/25 06:34:31;;;;;;;13.80;9.03;;;;;;;1.52;79.60;100556.34;1820132;78;21478;-77
2021/03/25 06:37:27;;;;;;;15.25;9.65;;;;;;;1.62;79.66;100549.20;1750259;82;20985;-77
2021/03/25 06:40:18;;;;;;;12.95;9.25;;;;;;;1.66;79.49;100557.30;1819966;78;21376;-77
2021/03/25 06:43:21;;;;;;;14.07;10.18;;;;;;;1.72;79.36;100558.45;1750282;82;21423;-77
2021/03/25 06:45:57;;;;;;;16.00;11.03;;;;;;;1.75;79.00;100556.22;1819998;78;20970;-77
2021/03/25 06:48:43;;;;;;;15.38;11.00;;;;;;;1.72;78.97;100553.28;1750114;82;21979;-76
2021/03/25 06:51:29;;;;;;;14.65;9.83;;;;;;;1.73;79.10;100555.41;1820078;78;20958;-77
2021/03/25 06:54:15;;;;;;;13.00;9.95;;;;;;;1.74;79.12;100558.42;1750227;81;20962;-77
2021/03/25 06:56:50;;;;;;;15.03;9.10;;;;;;;1.76;79.12;100559.23;1820039;78;20899;-77
2021/03/25 06:59:28;;;;;;;14.33;10.20;;;;;;;1.77;78.94;100558.33;1750334;81;21535;-77
2021/03/25 07:02:09;;;;;;;13.22;10.58;;;;;;;1.79;78.96;100560.44;1819989;78;21513;-76
2021/03/25 07:04:40;;;;;;;14.38;11.35;;;;;;;1.77;78.75;100555.75;1750038;82;21013;-77
2021/03/25 07:07:16;;;;;;;19.15;11.18;;;;;;;1.75;78.96;100562.23;1788713;78;20981;-75
2021/03/25 07:09:44;;;;;;;15.83;11.22;;;;;;;1.78;78.94;100566.06;1819979;78;20903;-77
2021/03/25 07:12:23;;;;;;;12.82;10.35;;;;;;;1.83;79.02;100559.48;1750155;81;20924;-77
2021/03/25 07:14:51;;;;;;;15.90;10.65;;;;;;;1.88;78.97;100565.38;1820029;78;21347;-76
2021/03/25 07:17:42;;;;;;;13.75;9.95;;;;;;;1.91;78.83;100568.32;1820067;78;21436;-75
2021/03/25 07:20:32;;;;;;;13.25;9.93;;;;;;;1.90;78.78;100575.69;1750183;81;21455;-76
2021/03/25 07:23:12;;;;;;;14.30;11.10;;;;;;;1.86;78.56;100571.87;1819978;78;20946;-76
2021/03/25 07:25:44;;;;;;;14.83;11.60;;;;;;;1.85;78.93;100578.39;1819787;78;20975;-75
2021/03/25 07:28:19;;;;;;;14.78;11.55;;;;;;;1.88;78.91;100573.13;1750061;81;22211;-76
2021/03/25 07:30:52;;;;;;;16.15;11.40;;;;;;;1.91;78.82;100586.42;1819689;78;20974;-77
2021/03/25 07:33:23;;;;;;;13.00;10.85;;;;;;;1.93;78.95;100580.32;1750289;82;21440;-76
2021/03/25 07:36:10;;;;;;;16.05;11.75;;;;;;;1.98;78.92;100584.95;1819992;78;21357;-76
2021/03/25 07:38:40;;;;;;;14.63;11.03;;;;;;;2.04;78.85;100586.52;1817076;78;21426;-76
2021/03/25 07:41:22;;;;;;;14.95;11.78;;;;;;;2.07;78.63;100592.48;1749547;81;22426;-77
2021/03/25 07:44:28;;;;;;;14.85;12.40;;;;;;;2.07;78.67;100591.64;1819354;78;20966;-77
2021/03/25 07:46:59;;;;;;;15.03;11.38;;;;;;;2.07;78.68;100586.47;1819310;78;21057;-77
2021/03/25 07:49:32;;;;;;;18.10;12.05;;;;;;;2.08;78.57;100592.03;1819339;78;20997;-78
2021/03/25 07:52:05;;;;;;;15.88;10.65;;;;;;;2.08;78.70;100582.97;1819386;78;20918;-75
2021/03/25 07:54:39;;;;;;;14.85;10.90;;;;;;;2.13;78.91;100583.70;1749735;81;21343;-76
2021/03/25 07:57:13;;;;;;;13.60;12.03;;;;;;;2.19;79.00;100586.13;1819435;78;20994;-77
2021/03/25 07:59:53;;;;;;;16.73;12.07;;;;;;;2.27;78.81;100595.84;1749743;81;20957;-78
2021/03/25 08:02:35;;;;;;;20.17;14.13;;;;;;;2.31;78.35;100592.71;1819587;78;21128;-77
2021/03/25 08:05:28;;;;;;;17.92;13.18;;;;;;;2.31;78.44;100590.13;1755859;81;20958;-76
2021/03/25 08:08:00;;;;;;;14.95;11.97;;;;;;;2.35;78.41;100586.58;1758777;81;21147;-75
2021/03/25 08:10:40;;;;;;;16.42;12.40;;;;;;;2.40;78.25;100588.62;1756900;81;21045;-76
2021/03/25 08:13:29;;;;;;;14.43;10.58;;;;;;;2.43;78.18;100594.15;1755603;81;21041;-76
2021/03/25 08:16:08;;;;;;;17.87;12.23;;;;;;;2.47;78.23;100594.02;1755457;81;21025;-77
2021/03/25 08:19:11;;;;;;;18.40;12.50;;;;;;;2.52;78.19;100594.34;1755626;81;21467;-76
2021/03/25 08:22:06;;;;;;;17.12;13.10;;;;;;;2.57;77.80;100589.89;1755551;81;21496;-79
2021/03/25 08:24:56;;;;;;;15.45;13.32;;;;;;;2.56;77.79;100594.67;1733816;81;20982;-77
2021/03/25 08:27:59;;;;;;;18.40;13.28;;;;;;;2.61;77.69;100594.09;1750952;81;20947;-78
2021/03/25 08:30:48;;;;;;;13.43;10.98;;;;;;;2.65;77.56;100596.55;1814843;78;21598;-83
2021/03/25 08:33:40;;;;;;;18.20;13.43;;;;;;;2.67;77.51;100597.81;1822866;78;20914;-79
2021/03/25 08:36:24;;;;;;;15.08;11.68;;;;;;;2.67;77.43;100601.24;1822868;78;22349;-77
2021/03/25 08:39:16;;;;;;;16.25;12.70;;;;;;;2.71;77.71;100600.70;1822676;78;20930;-79
2021/03/25 08:42:13;;;;;;;18.23;14.05;;;;;;;2.76;77.52;100606.61;1750306;82;20942;-73
2021/03/25 08:44:54;;;;;;;18.07;13.48;;;;;;;2.83;77.50;100600.36;1781330;80;20951;-73
2021/03/25 08:47:29;;;;;;;16.65;12.33;;;;;;;2.92;77.35;100603.14;1780006;80;20966;-73
2021/03/25 08:50:32;;;;;;;14.93;11.55;;;;;;;2.98;77.05;100603.39;1722347;80;22334;-72
2021/03/25 08:53:15;;;;;;;17.32;13.10;;;;;;;2.98;76.66;100610.74;1781988;80;20986;-74
2021/03/25 08:55:45;;;;;;;18.23;13.32;;;;;;;2.94;76.75;100609.58;1781426;80;21365;-75
2021/03/25 08:58:24;;;;;;;17.25;12.13;;;;;;;2.94;76.76;100605.70;1781289;80;21042;-73
2021/03/25 09:00:53;;;;;;;20.65;12.78;;;;;;;2.90;76.77;100613.98;1781222;80;21449;-74
2021/03/25 09:03:30;;;;;;;18.77;12.88;;;;;;;2.89;76.88;100607.97;1781272;80;21380;-75
2021/03/25 09:06:19;;;;;;;15.10;12.37;;;;;;;2.93;76.64;100613.05;1760278;80;21006;-74
2021/03/25 09:08:53;;;;;;;18.50;12.13;;;;;;;2.88;76.67;100607.55;1781296;80;20951;-76
2021/03/25 09:11:21;;;;;;;15.75;12.18;;;;;;;2.91;76.99;100614.38;1781447;80;20943;-79
2021/03/25 09:13:57;;;;;;;16.23;11.68;;;;;;;2.93;76.58;100607.87;1781370;80;21476;-77
2021/03/25 09:16:30;;;;;;;15.30;11.43;;;;;;;2.93;76.96;100606.12;1781228;80;21343;-77
2021/03/25 09:18:59;;;;;;;18.30;12.78;;;;;;;2.96;77.00;100612.53;1781249;80;21440;-78
2021/03/25 09:21:32;;;;;;;17.02;13.50;;;;;;;3.02;76.81;100613.63;1782172;80;21496;-82
2021/03/25 09:24:08;;;;;;;17.95;13.43;;;;;;;3.04;76.69;100612.29;1781935;80;21014;-82
2021/03/25 09:26:51;;;;;;;17.62;13.35;;;;;;;3.04;76.43;100607.11;1781257;80;21018;-78
2021/03/25 09:29:25;;;;;;;16.15;12.82;;;;;;;3.01;76.47;100616.28;1819343;78;21200;-79
2021/03/25 09:32:02;;;;;;;15.93;13.00;;;;;;;3.04;76.51;100616.17;1749622;81;20975;-81
2021/03/25 09:34:51;;;;;;;16.93;12.82;;;;;;;3.08;76.43;100619.09;1819775;78;20923;-81
2021/03/25 09:37:24;;;;;;;16.37;12.45;;;;;;;3.09;76.27;100617.76;1819497;78;20919;-81
2021/03/25 09:40:11;;;;;;;15.88;12.73;;;;;;;3.13;76.55;100624.13;1749736;81;20954;-80
2021/03/25 09:42:39;;;;;;;19.37;14.45;;;;;;;3.21;76.34;100620.42;1819552;78;21195;-81
2021/03/25 09:45:34;;;;;;;22.77;15.13;;;;;;;3.30;76.09;100625.33;1749531;81;21041;-80
2021/03/25 09:48:04;;;;;;;22.62;14.90;;;;;;;3.38;75.91;100621.66;1781081;80;20982;-80
2021/03/25 09:50:33;;;;;;;18.57;15.03;;;;;;;3.42;75.45;100624.56;1780953;80;21054;-78
2021/03/25 09:53:10;;;;;;;22.82;14.38;;;;;;;3.44;75.50;100622.31;1781107;80;20995;-78
2021/03/25 09:55:44;;;;;;;19.65;14.38;;;;;;;3.45;75.31;100631.80;1781524;80;22236;-77
2021/03/25 09:58:38;;;;;;;17.15;13.32;;;;;;;3.49;75.12;100630.83;1778923;80;21377;-76
2021/03/25 10:01:58;;;;;;;17.83;14.47;;;;;;;3.51;74.96;100633.34;1830212;76;27785;-78
2021/03/25 10:04:37;;;;;;;15.98;13.20;;;;;;;3.47;75.14;100639.09;1818124;77;20995;-78
2021/03/25 10:07:14;;;;;;;20.60;14.83;;;;;;;3.59;75.10;100631.38;1818070;78;21185;-77
2021/03/25 10:09:58;;;;;;;22.22;14.75;;;;;;;3.66;74.79;100632.03;1815665;77;21069;-76
2021/03/25 10:13:05;;;;;;;17.15;13.45;;;;;;;3.73;74.72;100637.00;1818248;79;21464;-76
2021/03/25 10:15:42;;;;;;;14.20;11.85;;;;;;;3.78;74.27;100638.15;1818025;77;20911;-73
2021/03/25 10:18:27;;;;;;;16.12;11.93;;;;;;;3.77;74.15;100641.63;1817951;78;20923;-78
2021/03/25 10:21:07;;;;;;;13.30;11.57;;;;;;;3.79;74.11;100647.61;1817947;77;21368;-76
2021/03/25 10:23:45;;;;;;;15.68;11.45;;;;;;;3.74;73.77;100643.03;1817967;79;20946;-74
2021/03/25 10:26:39;;;;;;;16.62;12.25;;;;;;;3.62;73.96;100644.69;1818058;79;20978;-77
2021/03/25 10:29:17;;;;;;;18.40;13.80;;;;;;;3.48;74.22;100643.36;1818170;77;21431;-75
2021/03/25 10:31:55;;;;;;;17.48;13.45;;;;;;;3.37;74.51;100648.02;1820061;79;21017;-77
2021/03/25 10:34:34;;;;;;;18.02;14.23;;;;;;;3.34;75.21;100642.10;1820093;77;21325;-76
2021/03/25 10:37:28;;;;;;;14.58;12.60;;;;;;;3.37;75.21;100637.66;1818489;79;20954;-77
2021/03/25 10:40:26;;;;;;;15.43;12.43;;;;;;;3.46;75.27;100643.02;1818231;77;21602;-76
2021/03/25 10:43:06;;;;;;;18.73;14.35;;;;;;;3.52;75.01;100646.73;1817844;78;21476;-77
2021/03/25 10:45:50;;;;;;;21.62;15.80;;;;;;;3.48;74.89;100643.82;1818036;77;20947;-77
2021/03/25 10:48:31;;;;;;;18.80;14.03;;;;;;;3.48;75.35;100644.66;1803632;79;21369;-78
2021/03/25 10:51:14;;;;;;;16.23;13.48;;;;;;;3.54;75.04;100652.72;1817984;78;20970;-78
2021/03/25 10:53:50;;;;;;;17.30;12.98;;;;;;;3.54;75.10;100650.13;1817997;78;20919;-75
2021/03/25 10:56:37;;;;;;;19.98;12.95;;;;;;;3.59;75.13;100649.52;1813850;77;20903;-76
2021/03/25 10:59:18;;;;;;;18.50;13.62;;;;;;;3.67;74.96;100645.42;1817868;78;20926;-76
2021/03/25 11:01:51;;;;;;;18.98;14.70;;;;;;;3.72;74.94;100642.22;1816859;79;21382;-72
2021/03/25 11:04:29;;;;;;;17.67;14.03;;;;;;;3.77;74.79;100652.45;1817899;78;21069;-76
2021/03/25 11:07:19;;;;;;;18.65;13.40;;;;;;;3.82;74.70;100650.55;1817874;79;21002;-74
2021/03/25 11:10:00;;;;;;;18.02;13.48;;;;;;;3.85;74.45;100646.58;1817942;78;21606;-74
2021/03/25 11:12:33;;;;;;;18.20;14.07;;;;;;;3.84;74.39;100644.41;1817351;79;20990;-73
2021/03/25 11:15:11;;;;;;;18.30;13.28;;;;;;;3.92;74.47;100645.48;1817434;79;21186;-74
2021/03/25 11:17:44;;;;;;;17.57;13.00;;;;;;;3.92;74.47;100645.48;1802098;79;21001;-76
2021/03/25 11:20:17;;;;;;;15.32;12.00;;;;;;;3.93;74.14;100645.44;1786884;79;20994;-77
2021/03/25 11:22:45;;;;;;;22.42;13.98;;;;;;;3.95;73.61;100651.40;1817351;77;21566;-75
2021/03/25 11:25:22;;;;;;;17.57;13.78;;;;;;;3.84;73.89;100650.89;1817373;78;20934;-74
2021/03/25 11:27:51;;;;;;;16.95;12.75;;;;;;;3.81;74.00;100653.60;1817292;79;20938;-76
2021/03/25 11:30:40;;;;;;;17.15;13.18;;;;;;;3.81;74.15;100653.60;1817288;79;20994;-74
2021/03/25 11:33:33;;;;;;;15.38;12.15;;;;;;;3.81;74.23;100656.65;1817180;79;20931;-77
2021/03/25 11:36:03;;;;;;;15.30;11.40;;;;;;;3.83;74.43;100658.75;1817320;77;21061;-75
2021/03/25 11:38:44;;;;;;;18.73;13.43;;;;;;;3.90;74.33;100659.79;1817347;79;20936;-75
2021/03/25 11:41:22;;;;;;;17.37;13.62;;;;;;;3.98;74.15;100657.39;1817026;79;20939;-75
2021/03/25 11:43:57;;;;;;;16.05;12.65;;;;;;;3.96;73.64;100656.16;1817263;79;21064;-75
2021/03/25 11:46:45;;;;;;;17.98;13.15;;;;;;;3.89;73.61;100663.72;1817275;78;20943;-74
2021/03/25 11:49:18;;;;;;;15.30;12.23;;;;;;;3.83;74.04;100656.16;1817555;77;20915;-72
2021/03/25 11:52:00;;;;;;;18.60;12.98;;;;;;;3.80;73.89;100661.00;1817356;79;20971;-75
2021/03/25 11:54:34;;;;;;;15.83;12.47;;;;;;;3.72;74.03;100655.19;1817312;79;21416;-78
2021/03/25 11:57:09;;;;;;;17.52;13.55;;;;;;;3.60;74.67;100659.02;1817432;78;20907;-77
2021/03/25 11:59:40;;;;;;;19.73;12.85;;;;;;;3.63;75.09;100662.80;1783636;77;21428;-78
2021/03/25 12:02:25;;;;;;;21.10;15.95;;;;;;;3.69;75.00;100665.64;1817259;79;20990;-78
2021/03/25 12:04:54;;;;;;;19.37;13.50;;;;;;;3.72;75.11;100672.89;1817347;79;20934;-79
2021/03/25 12:07:26;;;;;;;18.50;13.53;;;;;;;3.74;74.86;100659.42;1817282;78;21075;-79
2021/03/25 12:10:18;;;;;;;14.50;11.10;;;;;;;3.69;74.83;100670.40;1818504;77;20926;-76
2021/03/25 12:12:47;;;;;;;14.35;11.30;;;;;;;3.67;74.87;100664.86;1817475;77;21033;-80
2021/03/25 12:15:16;;;;;;;16.52;11.83;;;;;;;3.58;74.99;100665.99;1817464;79;20931;-77
2021/03/25 12:17:52;;;;;;;15.15;12.65;;;;;;;3.55;75.46;100662.63;1817481;78;21345;-77
2021/03/25 12:20:25;;;;;;;21.37;12.60;;;;;;;3.57;75.71;100669.47;1788943;79;21457;-78
2021/03/25 12:23:04;;;;;;;19.87;14.15;;;;;;;3.65;75.58;100673.14;1816070;79;20911;-78
2021/03/25 12:25:34;;;;;;;16.82;12.33;;;;;;;3.65;75.31;100671.39;1815143;78;20914;-78
2021/03/25 12:28:02;;;;;;;17.40;12.55;;;;;;;3.64;75.15;100678.75;1817292;79;20918;-78